Time;durP1;ratioP1;P1;durP2;ratioP2;P2;SDS_P1;SDS_P2;PMS_P1;PMS_P2;Temp;Humidity;BMP_temperature;BMP_pressure;BME280_temperature;BME280_humidity;BME280_pressure;Samples;Min_cycle;Max_cycle;Signal;HPM_P1;HPM_P2
2022/04/07 00:00:33;;;;;;;14.65;5.55;;;;;;;8.26;92.59;99165.94;4700068;30;20036;-78
2022/04/07 00:03:31;;;;;;;9.70;5.13;;;;;;;8.74;92.88;99239.28;4700101;30;20057;-78
2022/04/07 00:16:19;;;;;;;11.88;4.68;;;;;;;8.48;93.64;99220.81;4700032;30;20088;-78
2022/04/07 01:45:25;;;;;;;18.25;6.32;;;;;;;8.21;96.08;99059.22;4849576;25;20062;-79
2022/04/07 01:54:44;;;;;;;17.63;6.00;;;;;;;7.28;94.02;98872.34;4685245;30;20578;-78
2022/04/07 01:57:11;;;;;;;21.55;5.78;;;;;;;8.25;93.71;99025.41;4693581;25;20077;-78
2022/04/07 01:59:55;;;;;;;20.05;5.35;;;;;;;7.96;93.77;98962.69;4701031;30;20465;-79
2022/04/07 02:02:42;;;;;;;17.70;5.63;;;;;;;8.39;93.55;99011.47;4685381;30;20065;-78
2022/04/07 02:09:05;;;;;;;20.48;6.32;;;;;;;7.34;92.36;98832.50;4682634;30;20045;-79
2022/04/07 02:11:38;;;;;;;18.48;5.72;;;;;;;7.38;92.29;98831.34;4683150;30;20127;-79
2022/04/07 02:14:42;;;;;;;19.80;6.05;;;;;;;8.48;92.88;99018.41;4682537;30;20041;-79
2022/04/07 02:20:35;;;;;;;19.48;6.07;;;;;;;8.20;92.61;98960.69;4682966;30;20550;-79
2022/04/07 02:31:49;;;;;;;20.25;5.22;;;;;;;8.39;92.81;98983.16;4682856;30;20061;-78
2022/04/07 02:34:16;;;;;;;19.67;5.63;;;;;;;8.12;92.40;98926.28;4683443;30;20046;-79
2022/04/07 02:36:41;;;;;;;23.20;6.93;;;;;;;8.30;92.40;98959.00;4668784;30;20494;-79
2022/04/07 02:39:07;;;;;;;21.17;6.43;;;;;;;8.48;92.06;98976.44;4684399;30;20038;-79
2022/04/07 02:41:32;;;;;;;22.50;5.22;;;;;;;8.48;92.01;98961.00;4684148;30;20038;-78
2022/04/07 02:43:57;;;;;;;31.77;6.53;;;;;;;8.46;91.68;98962.91;4684123;30;20109;-78
2022/04/07 02:46:26;;;;;;;24.23;6.05;;;;;;;8.32;91.68;98938.28;4667904;30;20440;-80
2022/04/07 02:48:51;;;;;;;26.08;6.05;;;;;;;8.45;91.38;98959.47;4684267;30;20044;-79
2022/04/07 02:51:19;;;;;;;20.40;4.93;;;;;;;8.30;90.83;98923.00;4668602;30;20041;-79
2022/04/07 02:53:44;;;;;;;25.88;6.20;;;;;;;8.32;90.94;98926.25;4684208;30;20040;-78
2022/04/07 02:56:09;;;;;;;19.15;5.25;;;;;;;8.15;90.57;98897.72;4684077;30;20042;-79
2022/04/07 02:58:35;;;;;;;28.15;6.05;;;;;;;8.39;90.71;98930.91;4682216;30;20124;-79
2022/04/07 03:01:03;;;;;;;21.85;6.05;;;;;;;8.21;90.37;98886.94;4683885;30;20053;-79
2022/04/07 03:03:28;;;;;;;22.17;6.45;;;;;;;8.43;90.05;98917.66;4683965;30;20089;-79
2022/04/07 03:05:53;;;;;;;19.15;5.63;;;;;;;8.50;89.26;98905.09;4684131;30;20034;-79
2022/04/07 03:08:18;;;;;;;24.23;6.20;;;;;;;8.55;88.90;98902.94;4668075;30;20038;-79
2022/04/07 03:10:46;;;;;;;21.80;5.82;;;;;;;8.51;89.13;98886.97;4683722;30;20038;-79
2022/04/07 03:13:11;;;;;;;23.60;6.00;;;;;;;8.60;89.02;98886.16;4683800;30;20038;-78
2022/04/07 03:15:37;;;;;;;21.02;5.85;;;;;;;8.60;89.25;98890.50;4683431;30;20034;-79
2022/04/07 03:18:05;;;;;;;17.73;6.93;;;;;;;8.61;89.29;98884.41;4683473;30;20443;-79
2022/04/07 03:23:55;;;;;;;24.75;5.85;;;;;;;8.64;88.17;98850.69;4683837;30;20506;-79
2022/04/07 03:27:10;;;;;;;24.35;5.35;;;;;;;8.70;88.25;98862.22;4683344;30;20034;-79
2022/04/07 03:33:25;;;;;;;22.83;6.22;;;;;;;8.75;87.36;98858.31;4683710;30;20049;-78
2022/04/07 03:36:21;;;;;;;31.67;5.88;;;;;;;8.78;86.62;98844.38;4683241;30;20049;-78
2022/04/07 03:39:36;;;;;;;19.05;5.35;;;;;;;8.79;86.92;98839.06;4683284;30;20065;-79
2022/04/07 03:42:19;;;;;;;16.90;5.35;;;;;;;7.59;86.10;98646.41;4683276;30;20078;-79
2022/04/07 03:45:25;;;;;;;20.10;5.55;;;;;;;8.81;86.47;98826.06;4680635;30;20132;-79
2022/04/07 03:47:59;;;;;;;20.77;5.35;;;;;;;8.44;85.79;98753.84;4683336;30;20030;-78
2022/04/07 03:50:25;;;;;;;20.30;4.95;;;;;;;8.11;86.28;98701.00;4667681;30;20418;-78
2022/04/07 03:57:58;;;;;;;22.42;4.93;;;;;;;8.07;87.43;98705.59;4684727;30;20523;-79
2022/04/07 04:00:27;;;;;;;18.25;5.30;;;;;;;8.09;87.28;98708.84;4682684;30;20042;-79
2022/04/07 04:06:24;;;;;;;22.13;5.68;;;;;;;8.24;88.13;98722.94;4683018;30;20104;-80
2022/04/07 04:12:27;;;;;;;19.20;5.18;;;;;;;7.63;88.29;98593.81;4677779;30;20519;-80
2022/04/07 04:15:16;;;;;;;24.85;5.10;;;;;;;8.59;87.36;98748.19;4682411;30;20038;-79
2022/04/07 04:18:28;;;;;;;22.85;5.40;;;;;;;8.62;87.45;98721.38;4682584;30;20168;-78
2022/04/07 04:20:59;;;;;;;13.20;4.68;;;;;;;8.60;87.32;98713.78;4682509;30;20041;-79
2022/04/07 04:23:41;;;;;;;19.13;4.72;;;;;;;7.70;87.14;98553.81;4682699;30;20120;-79
2022/04/07 04:27:05;;;;;;;18.30;5.10;;;;;;;7.41;86.57;98492.13;4681360;30;20037;-80
2022/04/07 04:29:30;;;;;;;21.17;6.35;;;;;;;8.28;86.72;98631.75;4564740;31;20781;-80
2022/04/07 04:34:31;;;;;;;18.20;4.40;;;;;;;7.60;86.42;98512.69;4986766;25;20032;-78
2022/04/07 04:40:57;;;;;;;17.73;3.85;;;;;;;8.72;85.94;98660.44;4665508;30;20464;-82
2022/04/07 04:43:56;;;;;;;18.65;3.97;;;;;;;8.75;85.60;98656.75;4665379;30;20132;-79
2022/04/07 04:46:52;;;;;;;14.93;4.95;;;;;;;8.78;85.46;98662.47;4665113;30;20097;-79
2022/04/07 04:49:51;;;;;;;15.85;4.13;;;;;;;8.75;86.31;98642.16;4665257;30;20042;-79
2022/04/07 04:52:56;;;;;;;15.40;3.92;;;;;;;8.67;86.85;98626.59;4665097;30;20042;-79
2022/04/07 04:59:26;;;;;;;10.13;3.83;;;;;;;7.54;88.65;98469.56;4665405;30;20049;-79
2022/04/07 05:02:06;;;;;;;13.75;3.50;;;;;;;7.54;89.10;98451.59;4612058;31;20082;-79
2022/04/07 05:08:24;;;;;;;14.25;4.22;;;;;;;7.51;89.85;98421.06;4612501;31;20131;-79
2022/04/07 05:11:34;;;;;;;10.40;3.50;;;;;;;8.54;90.41;98588.28;4612153;31;20039;-79
2022/04/07 05:24:48;;;;;;;10.35;3.90;;;;;;;7.59;89.84;98363.88;4582594;31;20110;-78
2022/04/07 05:34:23;;;;;;;11.30;4.57;;;;;;;7.49;93.69;98381.88;4565810;31;20516;-79
2022/04/07 05:37:52;;;;;;;12.02;3.70;;;;;;;8.38;94.51;98528.91;4538851;31;20049;-78
2022/04/07 05:44:38;;;;;;;12.57;4.28;;;;;;;8.24;96.48;98519.81;4550008;31;20217;-79
2022/04/07 05:47:53;;;;;;;15.73;5.18;;;;;;;8.21;97.34;98507.25;4549516;31;20077;-78
2022/04/07 05:50:47;;;;;;;11.55;4.43;;;;;;;7.12;97.83;98333.78;4549682;31;20064;-79
2022/04/07 05:53:15;;;;;;;15.50;5.47;;;;;;;7.54;98.85;98400.22;4581923;31;20139;-75
2022/04/07 05:55:40;;;;;;;9.80;5.30;;;;;;;8.10;99.74;98489.41;4581909;31;20529;-85
2022/04/07 05:58:08;;;;;;;10.93;5.50;;;;;;;7.92;100.00;98445.59;4581847;31;20084;-78
2022/04/07 06:00:42;;;;;;;16.85;5.60;;;;;;;7.03;100.00;98324.31;4581815;31;20056;-77
2022/04/07 06:03:19;;;;;;;14.02;5.57;;;;;;;6.94;100.00;98293.53;4611046;25;20029;-77
2022/04/07 06:06:19;;;;;;;13.98;5.85;;;;;;;7.93;100.00;98462.66;4701826;30;20037;-78
2022/04/07 06:08:58;;;;;;;16.45;5.88;;;;;;;7.53;100.00;98393.47;4702012;30;20075;-78
2022/04/07 06:11:49;;;;;;;16.73;6.25;;;;;;;6.72;100.00;98266.41;4701950;30;20045;-78
2022/04/07 06:14:15;;;;;;;15.05;5.95;;;;;;;7.52;100.00;98388.47;4648563;30;20490;-86
2022/04/07 06:16:40;;;;;;;18.27;6.03;;;;;;;7.85;100.00;98441.16;4648633;30;20134;-89
2022/04/07 06:19:22;;;;;;;19.00;6.60;;;;;;;7.46;100.00;98376.97;4648373;30;20069;-79
2022/04/07 06:21:54;;;;;;;18.00;6.40;;;;;;;7.26;100.00;98316.34;4648503;30;20050;-78
2022/04/07 06:24:27;;;;;;;19.52;6.72;;;;;;;6.88;100.00;98266.66;4634353;30;20555;-80
2022/04/07 06:26:58;;;;;;;18.52;6.10;;;;;;;7.69;100.00;98380.88;4648206;30;20045;-79
2022/04/07 06:36:03;;;;;;;23.27;6.93;;;;;;;7.83;100.00;98394.25;4724891;25;20049;-86
2022/04/07 06:38:30;;;;;;;22.87;7.40;;;;;;;7.56;100.00;98344.41;4667129;30;20114;-78
2022/04/07 06:44:27;;;;;;;27.27;7.40;;;;;;;7.10;100.00;98252.75;4647615;30;20043;-77
2022/04/07 06:46:58;;;;;;;19.85;6.95;;;;;;;6.64;100.00;98171.41;4646835;30;20611;-76
2022/04/07 06:50:06;;;;;;;17.60;6.38;;;;;;;7.79;100.00;98339.75;4619811;30;20126;-79
2022/04/07 06:52:44;;;;;;;14.18;5.32;;;;;;;7.40;100.00;98265.38;4648263;30;20249;-79
2022/04/07 06:55:28;;;;;;;21.00;6.07;;;;;;;6.94;100.00;98180.66;4647963;30;20488;-78
2022/04/07 06:58:02;;;;;;;17.92;5.47;;;;;;;7.48;100.00;98250.09;4734246;25;20066;-78
2022/04/07 07:00:30;;;;;;;18.98;5.30;;;;;;;7.87;100.00;98311.63;4666671;30;20145;-78
2022/04/07 07:02:57;;;;;;;18.48;4.85;;;;;;;7.80;100.00;98273.78;4666673;30;20503;-78
2022/04/07 07:22:20;;;;;;;16.15;4.57;;;;;;;7.09;100.00;98138.22;4645526;30;20099;-80
2022/04/07 07:25:33;;;;;;;;;;;;;;;;;;;;;
2022/04/07 07:28:21;;;;;;;13.27;5.25;;;;;;;7.74;100.00;98263.09;4620916;30;20171;-79
2022/04/07 07:49:41;;;;;;;8.05;1.60;;;;;;;5.71;100.00;98336.50;4666113;30;20168;-80
2022/04/07 07:53:26;;;;;;;5.38;1.58;;;;;;;5.66;100.00;98400.06;4664790;30;20053;-83
2022/04/07 08:14:33;;;;;;;10.90;3.53;;;;;;;5.76;100.00;98342.88;4654589;30;20115;-82
2022/04/07 08:20:27;;;;;;;13.52;3.42;;;;;;;5.91;100.00;98357.94;4665754;30;20050;-76
2022/04/07 08:23:14;;;;;;;17.77;3.70;;;;;;;5.20;100.00;98217.00;4649691;30;20031;-85
2022/04/07 08:29:32;;;;;;;17.90;3.97;;;;;;;6.50;100.00;98357.22;4665863;30;20057;-78
2022/04/07 09:16:11;;;;;;;13.07;4.00;;;;;;;7.55;100.00;98270.88;4619919;30;20048;-83
2022/04/07 09:33:20;;;;;;;19.92;3.95;;;;;;;9.20;97.52;98345.34;4698745;30;20120;-77
2022/04/07 09:35:59;;;;;;;10.57;2.33;;;;;;;9.31;93.66;98332.25;4672229;30;20038;-79
2022/04/07 09:39:04;;;;;;;20.33;3.28;;;;;;;9.58;94.01;98335.66;4688030;30;20104;-80
2022/04/07 09:42:41;;;;;;;16.92;2.65;;;;;;;9.77;92.25;98338.84;4633572;31;20194;-79
2022/04/07 09:45:22;;;;;;;14.35;2.42;;;;;;;9.22;87.08;98263.59;4587339;31;20490;-79
2022/04/07 09:48:24;;;;;;;13.85;2.70;;;;;;;8.50;88.95;98193.41;4600965;31;20502;-77
2022/04/07 09:51:04;;;;;;;15.18;3.72;;;;;;;8.97;85.46;98272.13;4600863;31;20052;-78
2022/04/07 09:53:45;;;;;;;12.85;3.10;;;;;;;8.73;84.96;98260.66;4586931;31;20052;-79
2022/04/07 09:56:30;;;;;;;18.45;3.28;;;;;;;9.03;87.60;98299.81;4601088;31;20048;-78
2022/04/07 09:59:05;;;;;;;15.30;3.33;;;;;;;9.43;86.18;98307.03;4587267;31;20620;-76
2022/04/07 10:01:39;;;;;;;18.15;4.00;;;;;;;8.77;84.45;98215.69;4600883;31;20127;-81
2022/04/07 10:04:05;;;;;;;13.90;3.17;;;;;;;9.37;81.13;98333.41;4601254;31;20048;-78
2022/04/07 10:06:35;;;;;;;12.15;2.92;;;;;;;9.48;81.45;98328.81;4600881;31;20048;-78
2022/04/07 10:09:03;;;;;;;18.92;2.67;;;;;;;9.73;81.00;98319.50;4599205;31;20048;-86
2022/04/07 10:11:30;;;;;;;15.40;2.85;;;;;;;10.12;76.97;98339.66;4598361;31;20079;-81
2022/04/07 10:13:56;;;;;;;18.77;2.83;;;;;;;10.26;75.54;98343.47;4598401;31;20083;-78
2022/04/07 10:16:22;;;;;;;18.10;3.20;;;;;;;10.23;74.79;98339.44;4598404;31;20508;-78
2022/04/07 10:18:55;;;;;;;28.10;3.60;;;;;;;10.09;74.21;98315.94;4598542;31;20083;-79
2022/04/07 10:21:48;;;;;;;19.73;2.60;;;;;;;10.38;76.06;98359.47;4648586;30;20576;-78
2022/04/07 10:24:43;;;;;;;21.42;5.00;;;;;;;10.55;74.27;98356.78;4648202;30;20434;-76
2022/04/07 10:27:10;;;;;;;12.50;2.63;;;;;;;10.20;72.02;98349.19;4658338;30;20431;-79
2022/04/07 10:29:40;;;;;;;18.42;3.15;;;;;;;10.15;73.88;98375.47;4668499;30;20388;-77
2022/04/07 10:32:11;;;;;;;18.48;3.25;;;;;;;10.11;72.23;98348.34;4684679;30;20092;-76
2022/04/07 10:34:43;;;;;;;22.05;3.00;;;;;;;10.00;72.99;98333.16;4684585;30;20533;-80
2022/04/07 10:37:11;;;;;;;18.45;3.65;;;;;;;10.22;69.95;98358.41;4683710;30;20038;-77
2022/04/07 10:39:41;;;;;;;14.27;3.00;;;;;;;10.27;68.59;98387.16;4684210;30;20121;-77
2022/04/07 10:42:09;;;;;;;19.65;3.03;;;;;;;10.11;66.97;98387.03;4669129;30;20072;-75
2022/04/07 10:44:38;;;;;;;16.38;2.50;;;;;;;10.10;65.47;98406.03;4683166;30;20061;-78
2022/04/07 10:47:10;;;;;;;18.15;2.85;;;;;;;10.06;67.72;98395.25;4684278;30;20148;-76
2022/04/07 10:49:45;;;;;;;13.27;3.33;;;;;;;10.44;64.39;98413.84;4683619;30;20042;-78
2022/04/07 10:52:26;;;;;;;18.60;2.90;;;;;;;10.73;64.57;98410.09;4684217;30;20376;-84
2022/04/07 10:55:24;;;;;;;18.73;3.47;;;;;;;10.85;63.62;98408.81;4683665;30;20044;-83
2022/04/07 10:58:14;;;;;;;18.98;3.63;;;;;;;10.89;64.06;98418.66;4614147;31;20054;-82
2022/04/07 11:00:39;;;;;;;15.85;3.15;;;;;;;11.03;61.97;98413.88;4614276;31;20409;-82
2022/04/07 11:03:15;;;;;;;14.90;2.58;;;;;;;10.97;63.20;98409.31;4614500;31;20107;-80
2022/04/07 11:06:21;;;;;;;21.45;3.22;;;;;;;10.86;62.87;98390.59;4614378;31;20422;-79
2022/04/07 11:09:13;;;;;;;20.58;3.67;;;;;;;10.86;63.73;98444.00;4548288;31;20049;-82
2022/04/07 11:11:54;;;;;;;17.30;3.22;;;;;;;10.82;63.90;98429.78;4548158;31;20053;-80
2022/04/07 11:14:27;;;;;;;15.18;2.88;;;;;;;11.02;63.63;98451.81;4548470;31;20080;-81
2022/04/07 11:16:56;;;;;;;24.65;3.97;;;;;;;10.87;63.63;98406.88;4548316;31;20477;-83
2022/04/07 11:19:50;;;;;;;17.55;3.20;;;;;;;10.98;61.54;98447.09;4547682;31;20128;-82
2022/04/07 11:22:19;;;;;;;22.45;4.22;;;;;;;10.73;62.21;98454.78;4532002;31;20494;-79
2022/04/07 11:24:45;;;;;;;15.20;3.30;;;;;;;10.51;62.09;98452.72;4531770;31;20151;-79
2022/04/07 11:27:36;;;;;;;18.83;2.95;;;;;;;10.31;64.14;98452.94;4531891;31;20050;-79
2022/04/07 11:30:04;;;;;;;20.07;3.47;;;;;;;10.05;65.84;98465.81;4531889;31;20050;-80
2022/04/07 11:32:30;;;;;;;23.92;3.80;;;;;;;9.90;67.54;98469.88;4537698;31;20057;-79
2022/04/07 11:34:58;;;;;;;17.58;3.30;;;;;;;9.86;67.09;98476.31;4579329;31;20143;-77
2022/04/07 11:37:23;;;;;;;21.20;4.05;;;;;;;9.84;68.57;98483.41;4566942;31;20131;-77
2022/04/07 11:39:52;;;;;;;14.40;3.22;;;;;;;9.72;68.68;98458.78;4580039;31;20123;-79
2022/04/07 11:42:19;;;;;;;20.52;3.85;;;;;;;9.91;65.73;98494.72;4580633;31;20547;-77
2022/04/07 11:44:45;;;;;;;24.42;3.08;;;;;;;9.75;66.51;98484.28;4627556;30;20081;-83
2022/04/07 11:47:28;;;;;;;16.17;3.17;;;;;;;9.74;68.01;98508.44;4647093;30;20049;-78
2022/04/07 11:49:53;;;;;;;18.80;3.70;;;;;;;9.59;69.33;98512.47;4647011;30;20045;-80
2022/04/07 11:52:24;;;;;;;21.50;3.63;;;;;;;9.54;70.52;98522.41;4647003;30;20039;-79
2022/04/07 11:54:52;;;;;;;23.60;4.22;;;;;;;9.46;69.91;98511.06;4646607;30;20051;-79
2022/04/07 11:57:18;;;;;;;18.30;3.33;;;;;;;9.33;71.44;98517.53;4647017;30;20039;-78
2022/04/07 12:02:22;;;;;;;22.67;3.63;;;;;;;9.44;68.50;98502.69;4681685;30;20058;-79
2022/04/07 12:04:54;;;;;;;20.67;3.47;;;;;;;9.63;68.14;98514.59;4695992;30;20043;-79
2022/04/07 12:07:20;;;;;;;13.98;3.25;;;;;;;9.73;67.62;98533.41;4699745;30;20102;-80
2022/04/07 12:09:46;;;;;;;20.80;3.10;;;;;;;9.68;67.60;98524.47;4699792;30;20052;-80
2022/04/07 12:12:12;;;;;;;20.10;3.40;;;;;;;9.45;67.88;98506.88;4700161;30;20034;-80
2022/04/07 12:14:42;;;;;;;20.60;3.47;;;;;;;9.26;67.48;98483.03;4700188;30;20029;-79
2022/04/07 12:17:09;;;;;;;23.65;3.45;;;;;;;9.55;67.41;98534.34;4700178;30;20134;-79
2022/04/07 12:19:47;;;;;;;19.25;3.00;;;;;;;9.76;66.62;98548.56;4700036;30;20043;-77
2022/04/07 12:22:16;;;;;;;15.93;3.63;;;;;;;9.90;65.97;98542.06;4699878;30;20038;-80
2022/04/07 12:24:59;;;;;;;21.67;3.67;;;;;;;10.11;65.61;98538.38;4699660;30;20065;-79
2022/04/07 12:27:30;;;;;;;20.58;4.10;;;;;;;10.22;63.58;98553.63;4699845;30;20048;-79
2022/04/07 12:29:56;;;;;;;21.50;3.47;;;;;;;10.21;63.30;98564.88;4699826;30;20099;-79
2022/04/07 12:32:22;;;;;;;16.08;4.20;;;;;;;10.21;63.10;98557.94;4699027;30;20033;-78
2022/04/07 12:34:50;;;;;;;14.02;3.72;;;;;;;10.13;61.70;98539.84;4699610;30;20117;-79
2022/04/07 12:37:33;;;;;;;16.42;3.88;;;;;;;10.12;63.08;98553.69;4699925;30;20067;-80
2022/04/07 12:39:58;;;;;;;14.73;3.10;;;;;;;10.18;62.39;98552.28;4699565;30;20531;-80
2022/04/07 12:42:24;;;;;;;13.52;3.20;;;;;;;9.98;62.22;98534.41;4699590;30;20169;-79
2022/04/07 12:44:49;;;;;;;15.00;2.88;;;;;;;9.93;62.64;98533.22;4699705;30;20037;-80
2022/04/07 12:47:16;;;;;;;22.35;3.53;;;;;;;9.72;62.13;98521.44;4699541;30;20124;-79
2022/04/07 12:49:56;;;;;;;20.85;4.32;;;;;;;9.90;62.70;98565.28;4699598;30;20056;-80
2022/04/07 12:52:35;;;;;;;20.58;2.90;;;;;;;9.84;63.22;98565.06;4684304;30;20045;-79
2022/04/07 12:55:04;;;;;;;17.05;3.45;;;;;;;9.73;62.35;98579.78;4699237;30;20042;-80
2022/04/07 12:57:32;;;;;;;22.85;3.85;;;;;;;9.63;62.94;98575.63;4699371;30;20682;-80
2022/04/07 12:59:58;;;;;;;17.23;3.10;;;;;;;9.54;64.46;98604.84;4698564;30;20056;-79
2022/04/07 13:02:25;;;;;;;14.85;2.53;;;;;;;9.53;64.34;98577.47;4682325;30;20502;-80
2022/04/07 13:04:52;;;;;;;21.83;2.80;;;;;;;9.73;63.20;98604.72;4682280;30;20038;-80
2022/04/07 13:07:18;;;;;;;11.73;2.60;;;;;;;9.85;62.52;98589.88;4682363;30;20034;-80
2022/04/07 13:09:45;;;;;;;17.15;3.30;;;;;;;9.73;62.71;98568.66;4682047;30;20045;-79
2022/04/07 13:12:13;;;;;;;17.52;2.80;;;;;;;9.58;62.20;98552.91;4681983;30;20034;-79
2022/04/07 13:14:39;;;;;;;14.85;3.08;;;;;;;9.72;62.65;98582.50;4682214;30;20034;-83
2022/04/07 13:17:05;;;;;;;14.40;3.50;;;;;;;9.64;63.56;98592.75;4682110;30;20061;-81
2022/04/07 13:19:30;;;;;;;18.77;3.15;;;;;;;9.87;62.62;98606.00;4682044;30;20030;-81
2022/04/07 13:21:56;;;;;;;16.08;2.83;;;;;;;9.99;61.11;98587.59;4682245;30;20048;-83
2022/04/07 13:24:21;;;;;;;13.48;2.50;;;;;;;10.04;59.88;98608.59;4682098;30;20089;-81
2022/04/07 13:26:47;;;;;;;13.98;2.70;;;;;;;9.97;60.33;98580.97;4666590;30;20042;-83
2022/04/07 13:29:13;;;;;;;16.48;2.83;;;;;;;10.17;59.81;98566.16;4666672;30;20077;-79
2022/04/07 13:31:38;;;;;;;16.17;2.97;;;;;;;10.53;56.78;98613.38;4666867;30;20046;-80
2022/04/07 13:34:06;;;;;;;19.27;3.20;;;;;;;10.28;57.78;98559.00;4682202;30;20034;-80
2022/04/07 13:36:31;;;;;;;15.05;2.67;;;;;;;10.40;58.31;98580.22;4682162;30;20034;-82
2022/04/07 13:38:57;;;;;;;19.00;3.30;;;;;;;10.45;58.32;98572.84;4682063;30;20038;-80
2022/04/07 13:41:23;;;;;;;14.75;2.47;;;;;;;10.57;57.45;98566.47;4681861;30;20064;-81
2022/04/07 13:43:49;;;;;;;14.15;2.72;;;;;;;10.30;57.29;98546.75;4683942;30;20038;-80
2022/04/07 13:46:14;;;;;;;18.27;3.13;;;;;;;10.48;57.60;98600.09;4685044;30;20026;-83
2022/04/07 13:48:40;;;;;;;16.10;2.70;;;;;;;10.21;58.58;98570.03;4685360;30;20030;-80
2022/04/07 13:51:05;;;;;;;18.10;2.88;;;;;;;9.92;56.86;98536.75;4685150;30;20093;-79
2022/04/07 13:53:31;;;;;;;14.48;3.17;;;;;;;10.45;57.44;98611.56;4685095;30;20530;-79
2022/04/07 13:55:57;;;;;;;15.00;3.08;;;;;;;10.12;58.69;98542.56;4685019;30;20076;-80
2022/04/07 13:58:22;;;;;;;12.65;2.38;;;;;;;10.24;57.27;98557.69;4685017;30;20037;-79
2022/04/07 14:00:48;;;;;;;14.43;2.63;;;;;;;10.16;56.57;98573.06;4686381;30;20496;-82
2022/04/07 14:03:14;;;;;;;12.48;2.63;;;;;;;10.20;57.88;98555.53;4685254;30;20105;-80
2022/04/07 14:05:42;;;;;;;20.08;3.95;;;;;;;10.28;57.70;98548.69;4684985;30;20401;-80
2022/04/07 14:08:13;;;;;;;16.08;3.80;;;;;;;10.64;58.22;98610.56;4685132;30;20480;-78
2022/04/07 14:10:40;;;;;;;22.70;3.50;;;;;;;10.77;58.09;98641.94;4684813;30;20048;-79
2022/04/07 14:13:06;;;;;;;13.13;3.20;;;;;;;10.66;57.88;98634.44;4684822;30;20049;-78
2022/04/07 14:15:31;;;;;;;18.50;3.25;;;;;;;10.42;57.73;98603.28;4684576;30;20042;-78
2022/04/07 14:17:58;;;;;;;17.55;3.50;;;;;;;10.07;58.08;98577.34;4684456;30;20107;-79
2022/04/07 14:20:24;;;;;;;17.38;3.38;;;;;;;10.39;59.17;98643.09;4684763;30;20063;-78
2022/04/07 14:22:50;;;;;;;15.85;3.60;;;;;;;10.39;59.70;98652.59;4684551;30;20034;-77
2022/04/07 14:25:15;;;;;;;13.95;2.88;;;;;;;10.36;59.51;98645.97;4684805;30;20410;-79
2022/04/07 14:27:42;;;;;;;15.77;3.00;;;;;;;10.25;58.94;98649.59;4684344;30;20088;-79
2022/04/07 14:30:08;;;;;;;17.38;3.53;;;;;;;10.19;57.89;98645.00;4684358;30;20034;-85
2022/04/07 14:32:33;;;;;;;15.82;3.95;;;;;;;10.19;58.28;98644.19;4684761;30;20396;-83
2022/04/07 14:34:59;;;;;;;16.77;3.55;;;;;;;10.22;58.75;98654.22;4684604;30;20034;-84
2022/04/07 14:37:24;;;;;;;18.17;3.45;;;;;;;10.39;59.52;98666.31;4684633;30;20065;-83
2022/04/07 14:39:50;;;;;;;17.88;4.10;;;;;;;10.59;58.57;98649.69;4684311;30;20038;-78
2022/04/07 14:42:15;;;;;;;19.58;4.10;;;;;;;10.54;58.23;98638.22;4684108;30;20439;-83
2022/04/07 14:44:41;;;;;;;21.38;3.75;;;;;;;10.35;58.56;98605.66;4684628;30;20040;-83
2022/04/07 14:47:06;;;;;;;16.15;3.35;;;;;;;10.31;58.32;98630.94;4684280;30;20038;-84
2022/04/07 14:49:32;;;;;;;19.77;4.95;;;;;;;10.40;59.43;98660.19;4684428;30;20038;-86
2022/04/07 14:51:59;;;;;;;17.10;3.25;;;;;;;10.38;58.65;98645.81;4684207;30;20066;-86
2022/04/07 14:54:25;;;;;;;20.33;3.72;;;;;;;10.47;58.57;98665.59;4683659;30;20069;-78
2022/04/07 14:56:51;;;;;;;21.67;3.45;;;;;;;10.48;58.50;98672.34;4684213;30;20056;-80
2022/04/07 14:59:16;;;;;;;19.08;3.40;;;;;;;10.50;58.72;98663.50;4668692;30;20034;-80
2022/04/07 15:01:42;;;;;;;16.63;3.70;;;;;;;10.43;58.50;98674.59;4683304;30;20527;-80
2022/04/07 15:04:07;;;;;;;17.08;3.72;;;;;;;10.37;58.67;98632.13;4683332;30;20037;-86
2022/04/07 15:06:33;;;;;;;14.98;3.10;;;;;;;10.45;59.80;98673.47;4683120;30;20547;-82
2022/04/07 15:08:58;;;;;;;15.35;3.38;;;;;;;10.37;58.98;98650.19;4683062;30;20125;-89
2022/04/07 15:11:24;;;;;;;18.98;3.42;;;;;;;10.54;58.25;98670.00;4682936;30;20061;-85
2022/04/07 15:13:49;;;;;;;17.45;3.88;;;;;;;10.62;59.40;98682.97;4682676;30;20046;-81
2022/04/07 15:16:15;;;;;;;18.13;3.72;;;;;;;10.32;60.27;98632.56;4682799;30;20118;-84
2022/04/07 15:18:40;;;;;;;16.63;4.07;;;;;;;10.64;58.40;98672.50;4683075;30;20084;-83
2022/04/07 15:23:42;;;;;;;21.83;3.38;;;;;;;10.63;57.49;98676.84;4192281;30;15087826;-76
2022/04/07 15:26:07;;;;;;;16.85;3.13;;;;;;;10.57;56.95;98666.31;4683719;30;20066;-81
2022/04/07 15:28:33;;;;;;;17.55;3.08;;;;;;;10.59;55.94;98670.34;4683349;30;20124;-79
2022/04/07 15:31:00;;;;;;;20.98;3.53;;;;;;;10.43;55.69;98639.28;4683238;30;20506;-78
2022/04/07 15:33:27;;;;;;;15.48;3.67;;;;;;;10.73;55.95;98701.78;4683343;30;20494;-78
2022/04/07 15:35:53;;;;;;;15.10;2.65;;;;;;;10.71;55.21;98703.66;4683333;30;20034;-80
2022/04/07 15:38:18;;;;;;;16.98;3.25;;;;;;;10.59;54.34;98670.34;4667608;30;20044;-86
2022/04/07 15:40:43;;;;;;;22.60;3.42;;;;;;;10.51;55.91;98661.72;4683420;30;20048;-84
2022/04/07 15:43:10;;;;;;;18.23;2.92;;;;;;;10.69;55.70;98688.34;4683204;30;20033;-83
2022/04/07 15:45:36;;;;;;;19.58;3.35;;;;;;;10.66;56.12;98678.31;4683067;30;20041;-84
2022/04/07 15:48:02;;;;;;;16.60;4.03;;;;;;;10.62;54.79;98664.91;4683152;30;20463;-80
2022/04/07 15:50:27;;;;;;;15.27;2.90;;;;;;;10.74;55.57;98711.13;4667489;30;20053;-81
2022/04/07 15:52:56;;;;;;;14.32;3.28;;;;;;;10.81;54.93;98692.28;4683084;30;20034;-80
2022/04/07 15:55:21;;;;;;;16.50;3.38;;;;;;;10.72;54.96;98674.34;4683023;30;20126;-80
2022/04/07 15:57:47;;;;;;;16.48;3.97;;;;;;;10.87;54.49;98698.63;4682911;30;20097;-80
2022/04/07 16:00:13;;;;;;;13.70;3.03;;;;;;;10.86;54.24;98700.41;4683118;30;20072;-81
2022/04/07 16:02:38;;;;;;;17.08;2.85;;;;;;;10.86;54.50;98708.16;4682939;30;20038;-79
2022/04/07 16:05:07;;;;;;;17.50;2.95;;;;;;;10.62;54.30;98685.56;4682754;30;20041;-80
2022/04/07 16:07:37;;;;;;;15.05;3.45;;;;;;;10.73;54.91;98715.50;4682592;30;20038;-81
2022/04/07 16:10:06;;;;;;;17.63;3.28;;;;;;;10.67;53.88;98700.59;4682679;30;20034;-80
2022/04/07 16:12:31;;;;;;;15.90;3.58;;;;;;;10.63;53.93;98705.25;4667619;30;20330;-81
2022/04/07 16:14:57;;;;;;;15.88;2.90;;;;;;;10.62;53.52;98721.69;4682387;30;20033;-80
2022/04/07 16:17:22;;;;;;;20.02;3.45;;;;;;;10.62;53.78;98724.28;4682641;30;20494;-80
2022/04/07 16:19:47;;;;;;;14.07;2.80;;;;;;;10.57;55.23;98736.00;4682635;30;20077;-80
2022/04/07 16:22:13;;;;;;;19.42;3.28;;;;;;;10.55;54.13;98738.72;4682482;30;20061;-78
2022/04/07 16:24:38;;;;;;;18.58;4.13;;;;;;;10.38;54.55;98711.13;4682868;30;20510;-81
2022/04/07 16:27:04;;;;;;;16.98;3.03;;;;;;;10.43;54.17;98719.25;4682664;30;20034;-81
2022/04/07 16:29:29;;;;;;;19.98;3.28;;;;;;;10.52;54.22;98731.28;4682195;30;20038;-81
2022/04/07 16:31:57;;;;;;;12.50;3.00;;;;;;;10.44;54.60;98726.03;4682300;30;20088;-80
2022/04/07 16:34:23;;;;;;;16.48;3.38;;;;;;;10.48;53.61;98726.56;4682224;30;20149;-81
2022/04/07 16:36:49;;;;;;;15.95;2.90;;;;;;;10.41;53.76;98713.41;4681492;30;20117;-78
2022/04/07 16:39:15;;;;;;;10.45;2.58;;;;;;;10.37;52.80;98706.13;4682420;30;20056;-78
2022/04/07 16:41:40;;;;;;;16.52;2.70;;;;;;;10.20;53.14;98690.44;4682536;30;20136;-78
2022/04/07 16:44:06;;;;;;;11.32;2.20;;;;;;;10.28;52.19;98689.75;4682263;30;20121;-78
2022/04/07 16:46:31;;;;;;;20.02;3.50;;;;;;;10.38;52.13;98694.84;4682239;30;20034;-79
2022/04/07 16:48:57;;;;;;;18.15;3.28;;;;;;;10.46;52.31;98684.59;4682066;30;20044;-81
2022/04/07 16:51:22;;;;;;;12.80;2.65;;;;;;;10.43;53.36;98744.25;4666689;30;20124;-77
2022/04/07 16:53:48;;;;;;;14.27;2.80;;;;;;;10.33;52.73;98710.78;4675705;30;20038;-77
2022/04/07 16:56:15;;;;;;;15.18;3.05;;;;;;;9.99;54.56;98695.88;4649689;30;20066;-79
2022/04/07 16:58:43;;;;;;;18.35;2.90;;;;;;;10.23;55.42;98777.91;4665071;30;20093;-80
2022/04/07 17:01:08;;;;;;;18.73;3.15;;;;;;;10.02;54.97;98736.03;4664925;30;20046;-81
2022/04/07 17:03:36;;;;;;;19.33;3.30;;;;;;;10.16;54.34;98781.19;4664954;30;20030;-79
2022/04/07 17:06:01;;;;;;;17.48;3.50;;;;;;;9.90;54.78;98729.44;4664792;30;20469;-80